Time;durP1;ratioP1;P1;durP2;ratioP2;P2;SDS_P1;SDS_P2;PMS_P1;PMS_P2;Temp;Humidity;BMP_temperature;BMP_pressure;BME280_temperature;BME280_humidity;BME280_pressure;Samples;Min_cycle;Max_cycle;Signal;HPM_P1;HPM_P2
2021/11/26 00:00:29;;;;;;;11.93;2.88;;;;;;;3.91;100.00;100284.63;10157355;28;20050;-70
2021/11/26 00:05:26;;;;;;;9.43;2.22;;;;;;;3.94;100.00;100288.66;10162226;28;20054;-70
2021/11/26 00:10:22;;;;;;;15.82;2.80;;;;;;;3.89;100.00;100296.81;10159355;28;20067;-70
2021/11/26 00:15:27;;;;;;;12.45;2.70;;;;;;;3.86;100.00;100281.16;10153686;28;20069;-69
2021/11/26 00:20:23;;;;;;;11.43;2.42;;;;;;;3.81;100.00;100279.31;10149264;28;20042;-68
2021/11/26 00:25:20;;;;;;;9.75;2.30;;;;;;;3.86;100.00;100281.97;10154493;28;20105;-68
2021/11/26 00:30:17;;;;;;;13.77;3.00;;;;;;;3.76;100.00;100279.31;10153633;28;20125;-69
2021/11/26 00:35:14;;;;;;;13.80;2.65;;;;;;;3.77;100.00;100267.44;10152518;28;20130;-69
2021/11/26 00:40:11;;;;;;;8.07;2.40;;;;;;;3.76;100.00;100276.63;10151677;28;20050;-69
2021/11/26 00:45:12;;;;;;;9.40;2.10;;;;;;;3.75;100.00;100264.19;10152924;28;20505;-69
2021/11/26 00:50:12;;;;;;;7.63;1.40;;;;;;;3.62;100.00;100254.03;10151762;28;20144;-69
2021/11/26 00:55:10;;;;;;;9.32;1.25;;;;;;;3.68;100.00;100236.69;10156292;28;20080;-69
2021/11/26 01:00:10;;;;;;;3.75;0.75;;;;;;;3.78;100.00;100225.75;10158629;28;20076;-70
2021/11/26 01:05:08;;;;;;;4.32;1.02;;;;;;;3.80;100.00;100213.56;10155049;28;20050;-68
2021/11/26 01:10:08;;;;;;;6.55;0.77;;;;;;;3.87;100.00;100202.41;10153114;28;20133;-68
2021/11/26 01:15:07;;;;;;;4.28;0.77;;;;;;;3.80;100.00;100201.94;10147432;28;20047;-69
2021/11/26 01:20:05;;;;;;;12.07;3.13;;;;;;;3.83;100.00;100187.88;10153924;28;20046;-68
2021/11/26 01:25:03;;;;;;;8.70;1.15;;;;;;;3.83;100.00;100185.19;10156786;28;20046;-68
2021/11/26 01:30:05;;;;;;;10.02;2.00;;;;;;;3.90;100.00;100185.66;10147218;28;20141;-70
2021/11/26 01:35:02;;;;;;;7.78;1.80;;;;;;;3.90;100.00;100187.53;10137650;28;20547;-70
2021/11/26 01:39:58;;;;;;;7.95;1.67;;;;;;;3.80;100.00;100180.31;10156709;28;20129;-69
2021/11/26 01:44:55;;;;;;;15.38;2.42;;;;;;;3.77;100.00;100164.69;10156952;28;20113;-69
2021/11/26 01:49:51;;;;;;;8.15;2.30;;;;;;;3.78;100.00;100166.28;10160203;28;20119;-70
2021/11/26 01:54:48;;;;;;;11.70;2.22;;;;;;;3.74;100.00;100160.66;10155636;28;20070;-72
2021/11/26 01:59:48;;;;;;;11.38;2.50;;;;;;;3.78;100.00;100144.63;10153365;28;20501;-70
2021/11/26 02:04:45;;;;;;;8.38;2.50;;;;;;;3.78;100.00;100139.22;10156194;28;20042;-70
2021/11/26 02:09:42;;;;;;;11.65;3.00;;;;;;;3.83;100.00;100128.38;10166582;28;20488;-72
2021/11/26 02:14:38;;;;;;;11.35;2.90;;;;;;;3.96;100.00;100124.16;10155902;28;20054;-71
2021/11/26 02:19:35;;;;;;;12.93;3.75;;;;;;;3.90;100.00;100115.31;10149541;28;20042;-72
2021/11/26 02:24:31;;;;;;;12.88;3.60;;;;;;;3.88;100.00;100106.69;10154539;28;20149;-71
2021/11/26 02:29:28;;;;;;;16.98;4.07;;;;;;;3.70;100.00;100100.13;10158524;28;20034;-72
2021/11/26 02:34:25;;;;;;;17.38;5.10;;;;;;;3.80;100.00;100097.28;10154482;28;20065;-72
2021/11/26 02:39:21;;;;;;;12.02;3.55;;;;;;;3.78;100.00;100079.75;10161248;28;20133;-70
2021/11/26 02:44:17;;;;;;;11.68;3.25;;;;;;;3.70;100.00;100075.78;10156911;28;20096;-72
2021/11/26 02:49:14;;;;;;;15.95;4.13;;;;;;;3.72;100.00;100075.50;10159886;28;20049;-71
2021/11/26 02:54:11;;;;;;;13.07;3.75;;;;;;;3.76;100.00;100068.41;10165062;28;20697;-71
2021/11/26 02:59:07;;;;;;;13.77;4.10;;;;;;;3.74;100.00;100059.81;10137197;28;20105;-70
2021/11/26 03:04:04;;;;;;;12.45;3.92;;;;;;;3.70;100.00;100056.06;10143213;28;20150;-72
2021/11/26 03:09:00;;;;;;;13.48;6.05;;;;;;;3.77;100.00;100048.41;10156299;28;20783;-72
2021/11/26 03:13:56;;;;;;;12.98;5.18;;;;;;;3.61;100.00;100042.34;10160606;28;20558;-70
2021/11/26 03:18:53;;;;;;;22.42;6.55;;;;;;;3.60;100.00;100043.47;10169123;28;20145;-70
2021/11/26 03:23:49;;;;;;;15.48;5.78;;;;;;;3.61;100.00;100025.34;10159385;28;20134;-70
2021/11/26 03:28:46;;;;;;;12.07;5.90;;;;;;;3.62;100.00;100013.41;10151073;28;20530;-70
2021/11/26 03:33:43;;;;;;;12.45;6.15;;;;;;;3.72;100.00;100010.63;10160235;28;20134;-72
2021/11/26 03:38:39;;;;;;;12.38;6.22;;;;;;;3.71;100.00;100008.97;10160683;28;20129;-70
2021/11/26 03:43:35;;;;;;;13.35;6.28;;;;;;;3.65;100.00;100018.28;10156219;28;20073;-70
2021/11/26 03:48:33;;;;;;;12.98;6.63;;;;;;;3.68;100.00;100009.56;10161593;28;20042;-71
2021/11/26 03:53:29;;;;;;;17.48;7.78;;;;;;;3.56;100.00;100008.06;10155110;28;20145;-71
2021/11/26 03:58:26;;;;;;;15.75;6.75;;;;;;;3.61;100.00;100003.72;10155768;28;20138;-70
2021/11/26 04:03:22;;;;;;;17.13;7.65;;;;;;;3.54;100.00;99994.03;10152732;28;20567;-70
2021/11/26 04:08:19;;;;;;;11.88;7.95;;;;;;;3.58;100.00;99984.28;10163964;28;20042;-71
2021/11/26 04:13:17;;;;;;;15.43;8.30;;;;;;;3.57;100.00;99969.16;10155995;28;20065;-71
2021/11/26 04:18:14;;;;;;;15.48;8.20;;;;;;;3.59;100.00;99964.25;10142717;28;20046;-73
2021/11/26 04:23:11;;;;;;;18.80;8.82;;;;;;;3.69;100.00;99946.28;10151211;28;20050;-70
2021/11/26 04:28:07;;;;;;;15.68;7.85;;;;;;;3.68;100.00;99940.06;10157154;28;20050;-70
2021/11/26 04:33:04;;;;;;;16.73;9.48;;;;;;;3.68;100.00;99933.88;10154292;28;20475;-70
2021/11/26 04:38:00;;;;;;;16.67;10.00;;;;;;;3.79;100.00;99916.41;10149656;28;20050;-70
2021/11/26 04:42:57;;;;;;;19.42;10.98;;;;;;;3.78;100.00;99914.78;10154365;28;20184;-70
2021/11/26 04:47:53;;;;;;;19.05;11.35;;;;;;;3.80;100.00;99904.50;10145978;28;20085;-72
2021/11/26 04:52:50;;;;;;;19.10;11.35;;;;;;;3.83;100.00;99893.13;10164053;28;20458;-71
2021/11/26 04:57:47;;;;;;;18.80;12.45;;;;;;;3.81;100.00;99900.72;10147921;28;20073;-71
2021/11/26 05:02:44;;;;;;;20.80;13.43;;;;;;;3.73;100.00;99890.53;10155949;28;20078;-71
2021/11/26 05:07:41;;;;;;;25.67;16.02;;;;;;;3.62;100.00;99881.78;10143447;28;20043;-70
2021/11/26 05:12:42;;;;;;;24.17;14.07;;;;;;;3.62;100.00;99859.34;10160031;28;20046;-70
2021/11/26 05:17:38;;;;;;;32.03;18.33;;;;;;;3.49;100.00;99872.47;10145381;28;20504;-69
2021/11/26 05:22:36;;;;;;;26.85;17.80;;;;;;;3.45;100.00;99860.66;10129727;28;20082;-72
2021/11/26 05:27:32;;;;;;;29.45;18.67;;;;;;;3.39;100.00;99856.41;10130435;28;20137;-72
2021/11/26 05:32:29;;;;;;;34.00;20.38;;;;;;;3.50;100.00;99855.16;10135794;28;20046;-72
2021/11/26 05:37:28;;;;;;;36.95;20.35;;;;;;;3.53;100.00;99841.09;10149908;28;20046;-73
2021/11/26 05:42:30;;;;;;;37.13;21.20;;;;;;;3.53;100.00;99835.69;10146452;28;20089;-72
2021/11/26 05:47:27;;;;;;;43.03;21.35;;;;;;;3.47;100.00;99828.72;10158165;28;20496;-72
2021/11/26 05:52:28;;;;;;;44.13;23.02;;;;;;;3.44;100.00;99817.72;10157701;28;20125;-71
2021/11/26 05:57:24;;;;;;;48.60;22.85;;;;;;;3.50;100.00;99814.63;10154769;28;20530;-67
2021/11/26 06:02:21;;;;;;;40.53;22.38;;;;;;;3.46;100.00;99813.63;10147723;28;20133;-69
2021/11/26 06:07:17;;;;;;;39.65;20.95;;;;;;;3.48;100.00;99816.84;10141506;28;20070;-68
2021/11/26 06:12:14;;;;;;;47.83;21.75;;;;;;;3.43;100.00;99811.47;10141225;28;20088;-70
2021/11/26 06:17:10;;;;;;;42.05;21.33;;;;;;;3.57;100.00;99806.97;10122501;28;20129;-69
2021/11/26 06:22:07;;;;;;;40.67;21.10;;;;;;;3.66;100.00;99796.28;10129777;28;20046;-69
2021/11/26 06:27:04;;;;;;;37.42;20.23;;;;;;;3.70;100.00;99791.09;10138105;28;20041;-69
2021/11/26 06:32:01;;;;;;;34.42;18.98;;;;;;;3.66;100.00;99795.47;10134008;28;20587;-69
2021/11/26 06:36:58;;;;;;;36.53;20.00;;;;;;;3.75;100.00;99793.72;10141059;28;20070;-69
2021/11/26 06:41:54;;;;;;;37.33;18.92;;;;;;;3.72;100.00;99784.31;10157356;28;20484;-69
2021/11/26 06:46:51;;;;;;;39.08;20.60;;;;;;;3.78;100.00;99776.91;10153984;28;20046;-69
2021/11/26 06:51:47;;;;;;;39.35;20.48;;;;;;;3.82;100.00;99771.72;10153983;28;20065;-69
2021/11/26 06:56:44;;;;;;;36.30;20.05;;;;;;;3.74;100.00;99759.69;10160050;28;20050;-68
2021/11/26 07:01:41;;;;;;;44.63;21.42;;;;;;;3.75;100.00;99762.06;10140006;28;20129;-71
2021/11/26 07:06:38;;;;;;;45.15;23.52;;;;;;;3.69;100.00;99767.84;10157800;28;20051;-69
2021/11/26 07:11:35;;;;;;;41.50;20.98;;;;;;;3.69;100.00;99757.03;10147504;28;20042;-69
2021/11/26 07:16:31;;;;;;;44.28;19.80;;;;;;;3.66;100.00;99755.72;10149858;28;20131;-69
2021/11/26 07:21:28;;;;;;;38.63;21.48;;;;;;;3.71;100.00;99750.25;10146831;28;20070;-70
2021/11/26 07:26:24;;;;;;;41.85;19.58;;;;;;;3.71;100.00;99749.44;10100671;28;20053;-69
2021/11/26 07:31:21;;;;;;;40.15;19.98;;;;;;;3.80;100.00;99742.25;10132496;28;20116;-74
2021/11/26 07:36:18;;;;;;;36.55;20.73;;;;;;;3.75;100.00;99736.94;10144657;28;20397;-69
2021/11/26 07:41:15;;;;;;;34.75;19.17;;;;;;;3.81;100.00;99727.66;10136289;28;20078;-69
2021/11/26 07:46:11;;;;;;;38.47;18.98;;;;;;;3.81;100.00;99724.94;10126181;28;20141;-70
2021/11/26 07:51:08;;;;;;;34.38;18.02;;;;;;;3.84;100.00;99727.03;10134033;28;20100;-69
2021/11/26 07:56:05;;;;;;;30.45;16.27;;;;;;;3.89;100.00;99724.25;10143438;28;20096;-69
2021/11/26 08:01:02;;;;;;;31.00;15.80;;;;;;;3.92;100.00;99718.25;10135972;28;20050;-69
2021/11/26 08:06:00;;;;;;;25.30;14.00;;;;;;;3.89;100.00;99701.81;10141879;28;20069;-70
2021/11/26 08:10:56;;;;;;;28.55;15.75;;;;;;;3.85;100.00;99701.59;10134761;28;20050;-69
2021/11/26 08:15:53;;;;;;;26.63;15.07;;;;;;;3.89;100.00;99691.81;10134536;28;20093;-68
2021/11/26 08:20:49;;;;;;;30.73;17.10;;;;;;;3.87;100.00;99691.28;10120667;28;20086;-69
2021/11/26 08:25:46;;;;;;;28.33;14.23;;;;;;;4.04;100.00;99681.78;10146602;28;20100;-69
2021/11/26 08:30:42;;;;;;;30.08;14.63;;;;;;;4.09;100.00;99673.59;10170063;28;20041;-70
2021/11/26 08:35:40;;;;;;;31.00;14.82;;;;;;;4.09;100.00;99668.19;10156098;28;20075;-70
2021/11/26 08:40:36;;;;;;;24.92;14.75;;;;;;;3.99;100.00;99664.59;10140193;28;20498;-69
2021/11/26 08:45:33;;;;;;;24.15;13.40;;;;;;;3.94;100.00;99664.66;10132912;28;20129;-70
2021/11/26 08:50:30;;;;;;;25.52;13.95;;;;;;;4.01;100.00;99656.16;10142346;28;20134;-70
2021/11/26 08:55:27;;;;;;;25.75;13.48;;;;;;;3.93;100.00;99649.53;10149819;28;20096;-70
2021/11/26 09:00:35;;;;;;;27.10;13.20;;;;;;;4.02;100.00;99651.56;10137758;28;20101;-69
2021/11/26 09:05:32;;;;;;;25.50;12.73;;;;;;;4.03;100.00;99647.75;10152222;28;20056;-69
2021/11/26 09:10:38;;;;;;;25.90;13.43;;;;;;;4.07;100.00;99637.94;10148878;28;20132;-69
2021/11/26 09:15:36;;;;;;;26.40;14.48;;;;;;;4.11;100.00;99628.13;10140365;28;20038;-70
2021/11/26 09:20:35;;;;;;;24.35;12.38;;;;;;;4.15;100.00;99623.69;10144523;28;20108;-70
2021/11/26 09:25:32;;;;;;;33.10;13.98;;;;;;;4.13;100.00;99620.47;10150019;28;20086;-70
2021/11/26 09:30:31;;;;;;;25.23;13.65;;;;;;;4.20;100.00;99610.06;10145785;28;20416;-70
2021/11/26 09:35:28;;;;;;;27.77;13.82;;;;;;;4.11;100.00;99611.88;10143360;28;20046;-69
2021/11/26 09:40:25;;;;;;;28.20;15.05;;;;;;;4.22;100.00;99580.78;10150228;28;20050;-70
2021/11/26 09:45:24;;;;;;;27.08;14.82;;;;;;;4.22;100.00;99591.63;10150578;28;20074;-69
2021/11/26 09:50:25;;;;;;;29.05;14.75;;;;;;;4.29;100.00;99581.19;10134330;28;20065;-70
2021/11/26 09:55:23;;;;;;;24.35;14.35;;;;;;;4.28;100.00;99573.38;10133163;28;20047;-70
2021/11/26 10:00:19;;;;;;;26.83;13.85;;;;;;;4.28;100.00;99563.34;10140653;28;20054;-69
2021/11/26 10:05:16;;;;;;;24.75;12.07;;;;;;;4.34;100.00;99555.91;10135200;28;20077;-70
2021/11/26 10:10:18;;;;;;;25.33;11.30;;;;;;;4.40;100.00;99554.69;10128971;28;20050;-70
2021/11/26 10:15:26;;;;;;;17.98;9.85;;;;;;;4.34;100.00;99545.91;10127706;28;20050;-69
2021/11/26 10:20:23;;;;;;;19.10;9.90;;;;;;;4.39;100.00;99531.47;10140989;28;20061;-69
2021/11/26 10:25:20;;;;;;;17.00;7.80;;;;;;;4.42;100.00;99515.41;10138760;28;20047;-70
2021/11/26 10:30:39;;;;;;;14.38;7.75;;;;;;;4.54;100.00;99508.66;10136392;28;20074;-70
2021/11/26 10:35:39;;;;;;;14.90;8.00;;;;;;;4.58;100.00;99499.59;10147027;28;20046;-70
2021/11/26 10:40:38;;;;;;;12.70;6.60;;;;;;;4.57;100.00;99489.06;10150129;28;20042;-74
2021/11/26 11:01:29;;;;;;;19.58;9.57;;;;;;;4.66;100.00;99452.03;10136092;28;20042;-69
2021/11/26 11:06:26;;;;;;;21.00;9.75;;;;;;;4.82;100.00;99430.78;10093275;28;1061794;-69
2021/11/26 11:11:22;;;;;;;17.77;9.50;;;;;;;4.81;100.00;99430.00;10144418;28;20132;-70
2021/11/26 11:16:20;;;;;;;17.83;9.50;;;;;;;4.91;100.00;99423.50;10151020;28;20383;-69
2021/11/26 11:21:20;;;;;;;22.42;9.93;;;;;;;4.98;100.00;99413.00;10131361;28;20097;-69
2021/11/26 11:26:16;;;;;;;23.95;9.32;;;;;;;4.92;100.00;99397.19;10123755;28;20078;-70
2021/11/26 11:31:13;;;;;;;17.88;9.15;;;;;;;4.90;100.00;99384.00;10115484;28;20786;-70
2021/11/26 11:36:10;;;;;;;21.77;9.13;;;;;;;5.09;100.00;99388.38;10113886;28;20082;-70
2021/11/26 11:41:09;;;;;;;22.70;9.05;;;;;;;5.16;100.00;99381.38;10130500;28;20062;-70
2021/11/26 11:46:07;;;;;;;24.23;10.68;;;;;;;5.25;100.00;99374.06;10135398;28;20046;-70
2021/11/26 11:51:06;;;;;;;25.85;10.45;;;;;;;5.23;100.00;99362.75;10128264;28;20444;-70
2021/11/26 11:56:15;;;;;;;24.98;11.15;;;;;;;5.20;100.00;99359.88;10131898;28;20500;-69
2021/11/26 12:01:23;;;;;;;24.88;10.82;;;;;;;5.17;100.00;99355.84;10125279;28;20090;-69
2021/11/26 12:06:20;;;;;;;25.20;12.02;;;;;;;5.08;100.00;99346.91;10127620;28;20055;-69
2021/11/26 12:11:44;;;;;;;26.25;11.90;;;;;;;5.19;100.00;99329.25;10137469;28;20145;-69
2021/11/26 12:22:20;;;;;;;26.60;13.32;;;;;;;5.28;100.00;99302.97;10123068;28;20109;-69
2021/11/26 12:27:23;;;;;;;26.90;13.07;;;;;;;5.24;100.00;99293.91;10120813;28;20504;-69
2021/11/26 12:32:25;;;;;;;;;;;;;;;5.34;100.00;99295.50;10127326;28;20066;-69
2021/11/26 12:37:27;;;;;;;26.90;12.27;;;;;;;5.21;100.00;99280.16;10133434;28;19930;-69
2021/11/26 12:42:25;;;;;;;25.10;11.73;;;;;;;5.22;100.00;99266.31;10125105;28;20043;-69
2021/11/26 12:47:22;;;;;;;29.52;11.38;;;;;;;5.25;100.00;99265.66;10122572;28;20089;-70
2021/11/26 12:52:25;;;;;;;31.10;13.07;;;;;;;5.26;100.00;99256.41;10132505;28;20129;-69
2021/11/26 12:57:23;;;;;;;28.52;12.20;;;;;;;5.32;100.00;99248.94;10142077;28;20440;-69
2021/11/26 13:02:33;;;;;;;27.40;12.38;;;;;;;5.32;100.00;99245.44;10161156;28;20057;-69
2021/11/26 13:07:35;;;;;;;22.90;11.20;;;;;;;5.33;100.00;99236.19;10138034;28;20046;-69
2021/11/26 13:12:40;;;;;;;23.92;11.25;;;;;;;5.30;100.00;99228.69;10151216;28;20129;-69
2021/11/26 13:17:44;;;;;;;21.60;11.27;;;;;;;5.28;100.00;99221.66;10144301;28;20050;-69
2021/11/26 13:22:50;;;;;;;27.35;11.25;;;;;;;5.20;100.00;99208.94;10142413;28;20052;-69
2021/11/26 13:27:50;;;;;;;21.25;9.07;;;;;;;5.25;100.00;99197.91;10151191;28;20559;-69
2021/11/26 13:33:32;;;;;;;25.83;9.70;;;;;;;5.19;100.00;99180.22;10151420;28;20442;-69
2021/11/26 13:38:40;;;;;;;21.95;9.98;;;;;;;5.22;100.00;99163.34;10142130;28;20505;-70
2021/11/26 13:43:40;;;;;;;20.67;8.25;;;;;;;5.22;100.00;99159.81;10124308;28;20078;-69
2021/11/26 13:48:40;;;;;;;22.55;9.20;;;;;;;5.28;100.00;99145.78;10131595;28;20082;-70
2021/11/26 13:53:41;;;;;;;21.20;8.35;;;;;;;5.37;100.00;99140.34;10124978;28;20433;-69
2021/11/26 13:58:38;;;;;;;21.05;8.45;;;;;;;5.33;100.00;99141.31;10137274;28;20410;-69
2021/11/26 14:03:40;;;;;;;13.80;6.95;;;;;;;5.24;100.00;99133.19;10135317;28;20122;-69
2021/11/26 14:08:56;;;;;;;20.60;7.65;;;;;;;5.24;100.00;99133.19;10137919;28;20058;-70
2021/11/26 14:13:53;;;;;;;15.80;6.55;;;;;;;5.04;100.00;99135.44;10154212;28;20038;-69
2021/11/26 14:18:55;;;;;;;14.48;5.78;;;;;;;5.21;100.00;99129.22;10165781;28;20050;-68
2021/11/26 14:23:55;;;;;;;14.07;6.20;;;;;;;5.18;100.00;99113.59;10154738;28;20045;-68
2021/11/26 14:29:11;;;;;;;18.92;7.00;;;;;;;5.17;100.00;99109.28;10151406;28;20058;-69
2021/11/26 14:34:16;;;;;;;15.32;6.07;;;;;;;5.16;100.00;99094.16;10141556;28;20089;-71
2021/11/26 14:39:14;;;;;;;12.98;6.32;;;;;;;5.12;100.00;99095.91;10123272;28;20516;-69
2021/11/26 14:44:13;;;;;;;14.82;5.38;;;;;;;5.04;100.00;99096.75;10141427;28;20073;-69
2021/11/26 14:49:13;;;;;;;17.90;6.00;;;;;;;5.04;100.00;99091.31;10138998;28;20515;-69
2021/11/26 14:54:11;;;;;;;13.05;5.95;;;;;;;5.01;100.00;99078.41;10143346;28;20204;-67
2021/11/26 14:59:10;;;;;;;11.82;5.50;;;;;;;5.04;100.00;99083.19;10141666;28;20042;-67
2021/11/26 15:04:08;;;;;;;15.15;6.18;;;;;;;5.02;100.00;99072.66;10130004;28;20093;-68
2021/11/26 15:09:05;;;;;;;13.27;6.78;;;;;;;4.90;100.00;99074.41;10140427;28;20583;-69
2021/11/26 15:14:04;;;;;;;15.82;6.47;;;;;;;4.91;100.00;99067.91;10133508;28;20054;-69
2021/11/26 15:19:00;;;;;;;12.57;6.22;;;;;;;4.73;100.00;99064.41;10145889;28;20081;-69
2021/11/26 15:23:58;;;;;;;11.77;6.32;;;;;;;4.63;100.00;99065.53;10147797;28;20090;-69
2021/11/26 15:28:54;;;;;;;11.15;5.78;;;;;;;4.68;100.00;99061.88;10149037;28;20786;-69
2021/11/26 15:33:51;;;;;;;13.30;6.50;;;;;;;4.63;100.00;99050.06;10146608;28;20042;-69
2021/11/26 15:38:48;;;;;;;10.18;5.82;;;;;;;4.58;100.00;99041.31;10150850;28;20682;-70
2021/11/26 15:43:44;;;;;;;10.30;5.47;;;;;;;4.58;100.00;99041.31;10155660;28;20035;-69
2021/11/26 15:48:41;;;;;;;11.40;5.05;;;;;;;4.58;100.00;99035.91;10151423;28;20078;-70
2021/11/26 15:53:38;;;;;;;14.05;5.68;;;;;;;4.66;100.00;99032.38;10157591;28;20629;-69
2021/11/26 15:58:41;;;;;;;11.70;5.70;;;;;;;4.59;100.00;99026.66;10148111;28;20038;-69
2021/11/26 16:03:38;;;;;;;10.57;6.13;;;;;;;4.55;100.00;99023.00;10145933;28;20042;-69
2021/11/26 16:08:34;;;;;;;13.18;5.75;;;;;;;4.54;100.00;99016.00;10140168;28;20100;-68
2021/11/26 16:13:33;;;;;;;9.60;5.18;;;;;;;4.48;100.00;99020.78;10154777;28;20047;-68
2021/11/26 16:18:30;;;;;;;9.90;5.18;;;;;;;4.46;100.00;99012.19;10148839;28;20143;-68
2021/11/26 16:23:27;;;;;;;10.23;4.93;;;;;;;4.40;100.00;99008.03;10146233;28;20106;-69
2021/11/26 16:28:23;;;;;;;10.10;5.53;;;;;;;4.46;100.00;99006.00;10130884;28;20101;-69
2021/11/26 16:33:23;;;;;;;13.07;6.50;;;;;;;4.28;100.00;99005.19;10150864;28;20057;-68
2021/11/26 16:38:19;;;;;;;12.50;6.07;;;;;;;4.41;100.00;98994.19;10154681;28;20109;-68
2021/11/26 16:43:17;;;;;;;11.50;6.55;;;;;;;4.35;100.00;98992.75;10139221;28;20081;-68
2021/11/26 16:48:14;;;;;;;9.98;5.97;;;;;;;4.31;100.00;98989.09;10146991;28;20058;-68
2021/11/26 16:53:11;;;;;;;13.75;6.80;;;;;;;4.31;100.00;98986.38;10144722;28;20138;-68
2021/11/26 16:58:08;;;;;;;13.95;6.68;;;;;;;4.28;100.00;98984.31;10124870;28;20455;-69
2021/11/26 17:03:05;;;;;;;13.10;6.38;;;;;;;4.34;100.00;98976.84;10130157;28;20076;-68
2021/11/26 17:08:02;;;;;;;13.45;6.72;;;;;;;4.36;100.00;98980.84;10125122;28;20136;-68
2021/11/26 17:12:58;;;;;;;13.48;6.95;;;;;;;4.31;100.00;98962.03;10131933;28;20043;-69
2021/11/26 17:17:55;;;;;;;12.82;7.53;;;;;;;4.33;100.00;98967.94;10144232;28;20113;-68
2021/11/26 17:22:51;;;;;;;13.43;8.02;;;;;;;4.32;100.00;98963.66;10141911;28;20104;-69
2021/11/26 17:27:48;;;;;;;12.38;7.10;;;;;;;4.31;100.00;98962.03;10146176;28;20054;-69
2021/11/26 17:32:44;;;;;;;15.32;8.43;;;;;;;4.29;100.00;98960.75;10154985;28;20108;-68
2021/11/26 17:37:41;;;;;;;13.55;7.97;;;;;;;4.29;100.00;98958.06;10140095;28;20133;-68
2021/11/26 17:42:38;;;;;;;11.13;7.35;;;;;;;4.30;100.00;98955.03;10138075;28;20078;-68
2021/11/26 17:47:34;;;;;;;15.93;8.98;;;;;;;4.21;100.00;98946.13;10128539;28;20073;-68
2021/11/26 17:52:31;;;;;;;15.15;7.53;;;;;;;4.27;100.00;98950.28;10134525;28;20513;-68
2021/11/26 17:57:27;;;;;;;17.10;8.88;;;;;;;4.18;100.00;98935.97;10139903;28;20511;-69
2021/11/26 18:02:24;;;;;;;13.50;8.20;;;;;;;4.17;100.00;98923.53;10162618;28;20084;-68
2021/11/26 18:07:24;;;;;;;14.52;8.02;;;;;;;4.15;100.00;98914.94;10147660;28;20049;-68
2021/11/26 18:17:28;;;;;;;14.93;8.13;;;;;;;4.11;100.00;98928.31;10128893;28;20073;-70
2021/11/26 18:22:25;;;;;;;13.73;8.20;;;;;;;4.12;100.00;98923.69;10136293;28;20113;-69
2021/11/26 18:27:22;;;;;;;20.52;8.27;;;;;;;3.98;100.00;98913.03;10119183;28;20054;-68
2021/11/26 18:32:19;;;;;;;13.23;7.47;;;;;;;3.97;100.00;98912.25;10124531;28;20046;-68
2021/11/26 18:37:16;;;;;;;15.18;7.45;;;;;;;3.89;100.00;98907.63;10140356;28;20104;-68
2021/11/26 18:42:13;;;;;;;12.55;8.23;;;;;;;3.94;100.00;98910.16;10137795;28;20077;-68
2021/11/26 18:47:09;;;;;;;14.80;7.97;;;;;;;3.89;100.00;98896.81;10140694;28;20078;-68
2021/11/26 18:52:06;;;;;;;12.88;7.72;;;;;;;3.91;100.00;98894.59;10140268;28;20038;-69
2021/11/26 18:57:04;;;;;;;15.93;8.13;;;;;;;3.98;100.00;98884.09;10145638;28;20657;-69
2021/11/26 19:02:00;;;;;;;14.20;8.00;;;;;;;4.02;100.00;98883.47;10135120;28;20070;-69
2021/11/26 19:06:57;;;;;;;15.32;8.13;;;;;;;4.06;100.00;98892.50;10137530;28;20047;-69
2021/11/26 19:11:55;;;;;;;13.35;8.60;;;;;;;4.10;100.00;98890.75;10135382;28;20150;-69
2021/11/26 19:16:52;;;;;;;14.15;7.68;;;;;;;4.13;100.00;98895.53;10139466;28;20054;-69
2021/11/26 19:21:49;;;;;;;12.90;7.57;;;;;;;4.07;100.00;98883.28;10138502;28;20105;-69
2021/11/26 19:26:46;;;;;;;14.73;8.57;;;;;;;4.07;100.00;98880.59;10128642;28;20415;-69
2021/11/26 19:31:42;;;;;;;16.35;8.63;;;;;;;4.08;100.00;98898.41;10134686;28;20042;-69
2021/11/26 19:36:39;;;;;;;15.15;8.63;;;;;;;4.09;100.00;98892.69;10142716;28;20166;-69
2021/11/26 19:41:38;;;;;;;14.13;9.38;;;;;;;4.07;100.00;98891.41;10142193;28;20070;-69
2021/11/26 19:46:35;;;;;;;16.77;9.98;;;;;;;4.05;100.00;98882.81;10145152;28;20050;-69
2021/11/26 19:51:34;;;;;;;14.07;8.88;;;;;;;3.99;100.00;98884.88;10137495;28;20088;-68
2021/11/26 19:56:30;;;;;;;17.30;9.30;;;;;;;3.97;100.00;98874.41;10137079;28;20060;-69
2021/11/26 20:01:30;;;;;;;14.13;8.63;;;;;;;3.97;100.00;98870.91;10135211;28;20073;-69
2021/11/26 20:06:26;;;;;;;14.55;8.57;;;;;;;3.98;100.00;98861.66;10134230;28;20705;-69
2021/11/26 20:11:23;;;;;;;13.63;8.20;;;;;;;3.96;100.00;98864.66;10137300;28;20133;-69
2021/11/26 20:16:20;;;;;;;12.05;7.40;;;;;;;3.93;100.00;98859.13;10139301;28;20480;-69
2021/11/26 20:21:17;;;;;;;13.07;8.30;;;;;;;3.99;100.00;98858.66;10138072;28;20101;-69
2021/11/26 20:26:13;;;;;;;13.75;7.80;;;;;;;3.89;100.00;98864.34;10129176;28;20066;-69
2021/11/26 20:31:10;;;;;;;15.80;9.35;;;;;;;3.89;100.00;98858.94;10138373;28;20073;-69
2021/11/26 20:36:06;;;;;;;12.00;7.32;;;;;;;3.92;100.00;98847.53;10137142;28;20081;-69
2021/11/26 20:41:04;;;;;;;12.80;7.97;;;;;;;3.93;100.00;98851.81;10144004;28;20082;-69
2021/11/26 20:46:01;;;;;;;13.02;8.10;;;;;;;3.87;100.00;98844.94;10139544;28;20046;-68
2021/11/26 20:50:59;;;;;;;17.00;8.77;;;;;;;3.95;100.00;98843.38;10126449;28;20047;-68
2021/11/26 20:55:56;;;;;;;14.35;8.60;;;;;;;3.94;100.00;98839.84;10141357;28;20050;-67
2021/11/26 21:00:53;;;;;;;15.20;9.00;;;;;;;3.96;100.00;98837.63;10123970;28;20553;-68
2021/11/26 21:05:56;;;;;;;16.15;8.95;;;;;;;3.87;100.00;98834.13;10140763;28;20070;-70
2021/11/26 21:10:54;;;;;;;12.75;8.88;;;;;;;3.89;100.00;98823.81;10129860;28;20066;-68
2021/11/26 21:15:52;;;;;;;13.35;8.15;;;;;;;3.92;100.00;98825.88;10128696;28;20182;-69
2021/11/26 21:20:49;;;;;;;13.82;8.68;;;;;;;3.76;100.00;98816.66;10133987;28;20462;-71
2021/11/26 21:25:46;;;;;;;13.15;8.68;;;;;;;3.63;100.00;98823.03;10134452;28;20587;-68
2021/11/26 21:30:43;;;;;;;12.60;8.13;;;;;;;3.66;100.00;98811.56;10128200;28;20059;-68
2021/11/26 21:35:41;;;;;;;12.68;7.82;;;;;;;3.55;100.00;98806.50;10130989;28;20493;-68
2021/11/26 21:40:38;;;;;;;12.85;7.55;;;;;;;3.47;100.00;98809.19;10134671;28;20108;-68
2021/11/26 21:45:35;;;;;;;14.38;7.50;;;;;;;3.52;100.00;98809.81;10144368;28;20058;-68
2021/11/26 21:50:33;;;;;;;14.18;8.80;;;;;;;3.50;100.00;98797.72;10137765;28;20061;-69
2021/11/26 21:55:30;;;;;;;12.85;7.38;;;;;;;3.51;100.00;98794.72;10126769;28;20412;-70
2021/11/26 22:00:29;;;;;;;12.13;7.95;;;;;;;3.53;100.00;98787.09;10140498;28;20516;-69
2021/11/26 22:05:26;;;;;;;13.88;8.05;;;;;;;3.53;100.00;98781.69;10150784;28;20097;-69
2021/11/26 22:10:23;;;;;;;14.45;8.75;;;;;;;3.50;100.00;98781.53;10170887;28;20480;-69
2021/11/26 22:15:21;;;;;;;13.38;7.75;;;;;;;3.51;100.00;98783.13;10163790;28;20779;-70
2021/11/26 22:20:18;;;;;;;13.05;7.68;;;;;;;3.45;100.00;98768.97;10154137;28;20054;-70
2021/11/26 22:25:15;;;;;;;12.88;7.53;;;;;;;3.47;100.00;98766.75;10159400;28;20548;-69
2021/11/26 22:30:12;;;;;;;13.30;8.20;;;;;;;3.42;100.00;98764.22;10163950;28;20077;-69
2021/11/26 22:35:30;;;;;;;13.77;7.95;;;;;;;3.53;100.00;98760.09;10153999;28;20496;-72
2021/11/26 22:40:27;;;;;;;14.13;8.38;;;;;;;3.50;100.00;98763.41;10161531;28;20097;-70
2021/11/26 22:45:24;;;;;;;15.73;9.35;;;;;;;3.50;100.00;98760.69;10150222;28;20081;-68
2021/11/26 22:50:22;;;;;;;13.75;8.75;;;;;;;3.47;100.00;98755.94;10157879;28;20053;-71
2021/11/26 22:55:19;;;;;;;15.50;8.45;;;;;;;3.45;100.00;98755.47;10156552;28;20046;-70
2021/11/26 23:00:24;;;;;;;15.48;8.50;;;;;;;3.45;100.00;98746.56;10162670;28;20082;-70
2021/11/26 23:05:22;;;;;;;12.82;8.00;;;;;;;3.41;100.00;98749.09;10151627;28;20132;-71
2021/11/26 23:10:19;;;;;;;15.40;9.45;;;;;;;3.37;100.00;98748.94;10160102;28;20054;-71